createdAt,value
2023-02-02T00:00:24.333Z,12.80
2023-02-02T00:01:24.323Z,16.20
2023-02-02T00:02:24.373Z,16.10
2023-02-02T00:03:24.305Z,11.90
2023-02-02T00:04:24.285Z,14.50
2023-02-02T00:05:24.582Z,15.20
2023-02-02T00:06:24.256Z,11.70
2023-02-02T00:07:24.247Z,12.60
2023-02-02T00:08:24.242Z,13.40
2023-02-02T00:09:24.203Z,12.70
2023-02-02T00:10:24.216Z,12.80
2023-02-02T00:11:24.183Z,13.20
2023-02-02T00:12:24.172Z,14.40
2023-02-02T00:13:24.172Z,17.10
2023-02-02T00:14:24.153Z,16.50
2023-02-02T00:15:24.504Z,16.80
2023-02-02T00:16:24.175Z,15.70
2023-02-02T00:17:24.103Z,12.20
2023-02-02T00:18:24.126Z,12.40
2023-02-02T00:19:24.081Z,15.60
2023-02-02T00:20:24.077Z,15.40
2023-02-02T00:21:24.060Z,13.00
2023-02-02T00:22:24.047Z,14.80
2023-02-02T00:23:24.042Z,13.00
2023-02-02T00:24:24.041Z,12.40
2023-02-02T00:25:24.340Z,12.10
2023-02-02T00:26:24.001Z,15.00
2023-02-02T00:27:23.987Z,10.40
2023-02-02T00:28:23.983Z,16.00
2023-02-02T00:29:23.947Z,15.30
2023-02-02T00:30:23.984Z,11.00
2023-02-02T00:31:23.958Z,14.90
2023-02-02T00:32:23.920Z,12.90
2023-02-02T00:33:23.908Z,15.40
2023-02-02T00:34:23.904Z,13.20
2023-02-02T00:35:24.025Z,11.30
2023-02-02T00:36:23.872Z,14.60
2023-02-02T00:37:23.848Z,13.70
2023-02-02T00:38:23.856Z,12.30
2023-02-02T00:39:23.816Z,14.20
2023-02-02T00:40:23.809Z,15.20
2023-02-02T00:41:23.807Z,14.70
2023-02-02T00:42:23.787Z,14.90
2023-02-02T00:43:23.779Z,16.20
2023-02-02T00:44:23.777Z,15.30
2023-02-02T00:45:24.097Z,13.00
2023-02-02T00:46:23.749Z,15.90
2023-02-02T00:47:23.716Z,16.80
2023-02-02T00:48:23.726Z,16.90
2023-02-02T00:49:23.697Z,15.50
2023-02-02T00:50:23.690Z,16.60
2023-02-02T00:51:23.668Z,13.20
2023-02-02T00:52:23.665Z,14.80
2023-02-02T00:53:23.652Z,15.80
2023-02-02T00:54:23.636Z,15.00
2023-02-02T00:55:23.976Z,16.90
2023-02-02T00:56:23.605Z,14.70
2023-02-02T00:57:23.593Z,15.20
2023-02-02T00:58:23.596Z,16.60
2023-02-02T00:59:23.569Z,16.30
2023-02-02T01:00:23.542Z,15.30
2023-02-02T01:01:23.591Z,18.10
2023-02-02T01:02:23.558Z,14.00
2023-02-02T01:03:23.528Z,17.10
2023-02-02T01:04:23.514Z,14.90
2023-02-02T01:05:23.791Z,15.50
2023-02-02T01:06:23.474Z,17.70
2023-02-02T01:07:23.463Z,11.90
2023-02-02T01:08:23.459Z,15.50
2023-02-02T01:09:23.431Z,16.40
2023-02-02T01:10:23.424Z,19.20
2023-02-02T01:11:23.411Z,18.30
2023-02-02T01:12:23.400Z,16.50
2023-02-02T01:13:23.392Z,15.10
2023-02-02T01:14:23.375Z,14.40
2023-02-02T01:15:23.599Z,17.20
2023-02-02T01:16:23.448Z,15.00
2023-02-02T01:17:23.328Z,19.20
2023-02-02T01:18:23.350Z,15.80
2023-02-02T01:19:23.300Z,17.50
2023-02-02T01:20:23.293Z,14.50
2023-02-02T01:21:23.281Z,13.40
2023-02-02T01:22:23.265Z,13.00
2023-02-02T01:23:23.260Z,18.40
2023-02-02T01:24:23.247Z,16.20
2023-02-02T01:25:23.561Z,13.60
2023-02-02T01:26:23.248Z,17.10
2023-02-02T01:27:23.207Z,21.70
2023-02-02T01:28:23.195Z,17.90
2023-02-02T01:29:23.174Z,17.00
2023-02-02T01:30:23.175Z,17.30
2023-02-02T01:31:23.199Z,15.70
2023-02-02T01:32:23.148Z,14.80
2023-02-02T01:33:23.148Z,15.60
2023-02-02T01:34:23.127Z,16.70
2023-02-02T01:35:23.607Z,14.40
2023-02-02T01:36:23.086Z,21.10
2023-02-02T01:37:23.067Z,19.50
2023-02-02T01:38:23.084Z,17.50
2023-02-02T01:39:23.051Z,14.40
2023-02-02T01:40:23.033Z,13.20
2023-02-02T01:41:23.015Z,15.30
2023-02-02T01:42:23.011Z,15.50
2023-02-02T01:43:23.018Z,17.90
2023-02-02T01:44:22.988Z,15.70
2023-02-02T01:45:23.371Z,15.20
2023-02-02T01:46:22.953Z,20.90
2023-02-02T01:47:22.955Z,16.70
2023-02-02T01:48:22.931Z,16.10
2023-02-02T01:49:22.920Z,13.00
2023-02-02T01:50:22.911Z,18.50
2023-02-02T01:51:22.881Z,21.80
2023-02-02T01:52:22.879Z,16.10
2023-02-02T01:53:22.863Z,18.10
2023-02-02T01:54:22.864Z,17.30
2023-02-02T01:55:23.014Z,19.90
2023-02-02T01:56:22.831Z,17.90
2023-02-02T01:57:22.807Z,20.40
2023-02-02T01:58:22.812Z,19.50
2023-02-02T01:59:22.797Z,19.00
2023-02-02T02:00:22.769Z,18.60
2023-02-02T02:01:22.793Z,16.20
2023-02-02T02:02:22.812Z,18.50
2023-02-02T02:03:22.742Z,19.70
2023-02-02T02:04:22.727Z,22.30
2023-02-02T02:05:23.026Z,22.80
2023-02-02T02:06:22.715Z,20.80
2023-02-02T02:07:22.691Z,24.00
2023-02-02T02:08:22.677Z,25.90
2023-02-02T02:09:22.669Z,24.70
2023-02-02T02:10:22.636Z,29.90
2023-02-02T02:11:22.646Z,29.80
2023-02-02T02:12:22.622Z,27.00
2023-02-02T02:13:22.614Z,33.20
2023-02-02T02:14:22.607Z,31.20
2023-02-02T02:15:22.918Z,27.10
2023-02-02T02:16:22.575Z,31.70
2023-02-02T02:17:22.553Z,29.40
2023-02-02T02:18:22.536Z,33.80
2023-02-02T02:19:22.541Z,31.70
2023-02-02T02:20:22.516Z,36.30
2023-02-02T02:21:22.511Z,36.70
2023-02-02T02:22:22.482Z,33.60
2023-02-02T02:23:22.482Z,35.80
2023-02-02T02:24:22.473Z,34.60
2023-02-02T02:25:22.840Z,36.00
2023-02-02T02:26:22.446Z,42.00
2023-02-02T02:27:22.422Z,45.20
2023-02-02T02:28:22.403Z,45.20
2023-02-02T02:29:22.433Z,41.30
2023-02-02T02:30:22.381Z,47.60
2023-02-02T02:31:22.467Z,51.20
2023-02-02T02:32:22.360Z,54.50
2023-02-02T02:33:22.342Z,49.40
2023-02-02T02:34:22.352Z,51.50
2023-02-02T02:35:22.512Z,56.10
2023-02-02T02:36:22.307Z,55.00
2023-02-02T02:37:22.290Z,57.20
2023-02-02T02:38:22.283Z,55.90
2023-02-02T02:39:22.291Z,56.30
2023-02-02T02:40:22.254Z,60.30
2023-02-02T02:41:22.241Z,59.00
2023-02-02T02:42:22.227Z,66.30
2023-02-02T02:43:22.211Z,63.80
2023-02-02T02:44:22.218Z,60.70
2023-02-02T02:45:22.459Z,63.90
2023-02-02T02:46:22.231Z,62.50
2023-02-02T02:47:22.176Z,62.00
2023-02-02T02:48:22.148Z,61.10
2023-02-02T02:49:22.139Z,64.10
2023-02-02T02:50:22.124Z,63.60
2023-02-02T02:51:22.121Z,65.70
2023-02-02T02:52:22.100Z,63.20
2023-02-02T02:53:22.080Z,61.40
2023-02-02T02:54:22.080Z,66.30
2023-02-02T02:55:22.360Z,64.70
2023-02-02T02:56:22.059Z,63.30
2023-02-02T02:57:22.035Z,63.70
2023-02-02T02:58:22.016Z,65.20
2023-02-02T02:59:22.008Z,63.70
2023-02-02T03:00:21.998Z,64.20
2023-02-02T03:01:22.047Z,62.40
2023-02-02T03:02:22.003Z,62.00
2023-02-02T03:03:21.965Z,67.10
2023-02-02T03:04:21.953Z,60.50
2023-02-02T03:05:22.305Z,67.20
2023-02-02T03:06:21.924Z,68.80
2023-02-02T03:07:21.894Z,66.00
2023-02-02T03:08:21.899Z,68.20
2023-02-02T03:09:21.875Z,68.20
2023-02-02T03:10:21.861Z,71.50
2023-02-02T03:11:21.841Z,66.90
2023-02-02T03:12:21.835Z,70.90
2023-02-02T03:13:21.824Z,69.00
2023-02-02T03:14:21.833Z,65.90
2023-02-02T03:15:22.195Z,70.80
2023-02-02T03:16:21.782Z,76.20
2023-02-02T03:17:21.770Z,93.90
2023-02-02T03:18:21.750Z,74.90
2023-02-02T03:19:21.748Z,81.70
2023-02-02T03:20:21.728Z,86.60
2023-02-02T03:21:21.719Z,81.50
2023-02-02T03:22:21.712Z,74.20
2023-02-02T03:23:21.680Z,81.10
2023-02-02T03:24:21.681Z,91.00
2023-02-02T03:25:21.742Z,101.10
2023-02-02T03:26:21.721Z,90.10
2023-02-02T03:27:21.639Z,76.80
2023-02-02T03:28:21.629Z,122.40
2023-02-02T03:29:21.623Z,99.70
2023-02-02T03:30:21.609Z,107.60
2023-02-02T03:31:21.621Z,91.80
2023-02-02T03:32:21.588Z,104.40
2023-02-02T03:33:21.548Z,110.50
2023-02-02T03:34:21.565Z,101.20
2023-02-02T03:35:21.534Z,95.30
2023-02-02T03:36:21.519Z,104.00
2023-02-02T03:37:21.504Z,103.50
2023-02-02T03:38:21.574Z,90.20
2023-02-02T03:39:21.521Z,105.00
2023-02-02T03:40:21.480Z,85.40
2023-02-02T03:41:21.455Z,98.80
2023-02-02T03:42:21.446Z,86.40
2023-02-02T03:43:21.432Z,99.60
2023-02-02T03:44:21.426Z,98.20
2023-02-02T03:45:21.407Z,109.20
2023-02-02T03:46:21.428Z,109.90
2023-02-02T03:47:21.379Z,106.80
2023-02-02T03:48:21.376Z,127.10
2023-02-02T03:49:21.369Z,115.60
2023-02-02T03:50:21.343Z,92.00
2023-02-02T03:51:21.317Z,132.60
2023-02-02T03:52:21.314Z,116.60
2023-02-02T03:53:21.306Z,135.10
2023-02-02T03:54:21.298Z,125.00
2023-02-02T03:55:21.283Z,151.90
2023-02-02T03:56:21.263Z,123.00
2023-02-02T03:57:21.246Z,121.60
2023-02-02T03:58:21.248Z,127.80
2023-02-02T03:59:21.224Z,109.80
2023-02-02T04:00:21.216Z,111.20
2023-02-02T04:01:21.209Z,122.40
2023-02-02T04:02:21.183Z,112.30
2023-02-02T04:03:21.323Z,126.20
2023-02-02T04:04:21.168Z,114.20
2023-02-02T04:05:21.152Z,108.70
2023-02-02T04:06:21.132Z,201.90
2023-02-02T04:07:21.128Z,132.50
2023-02-02T04:08:21.109Z,147.40
2023-02-02T04:09:21.100Z,123.60
2023-02-02T04:10:21.096Z,126.90
2023-02-02T04:11:21.071Z,166.00
2023-02-02T04:12:21.050Z,181.50
2023-02-02T04:13:21.030Z,151.50
2023-02-02T04:14:21.042Z,186.70
2023-02-02T04:15:21.011Z,474.00
2023-02-02T04:16:21.131Z,202.40
2023-02-02T04:17:20.989Z,211.30
2023-02-02T04:18:20.978Z,174.60
2023-02-02T04:19:20.983Z,191.30
2023-02-02T04:20:20.961Z,190.30
2023-02-02T04:21:20.954Z,194.80
2023-02-02T04:22:20.940Z,198.00
2023-02-02T04:23:20.911Z,198.80
2023-02-02T04:24:20.921Z,206.90
2023-02-02T04:25:20.888Z,211.60
2023-02-02T04:26:20.902Z,190.00
2023-02-02T04:27:20.875Z,198.30
2023-02-02T04:28:20.852Z,200.20
2023-02-02T04:29:20.870Z,200.90
2023-02-02T04:30:20.820Z,206.70
2023-02-02T04:31:20.849Z,233.60
2023-02-02T04:32:20.813Z,210.40
2023-02-02T04:33:20.776Z,184.60
2023-02-02T04:34:20.794Z,197.50
2023-02-02T04:35:20.811Z,196.40
2023-02-02T04:36:20.765Z,211.30
2023-02-02T04:37:20.726Z,218.00
2023-02-02T04:38:20.743Z,280.20
2023-02-02T04:39:20.717Z,214.00
2023-02-02T04:40:20.696Z,189.70
2023-02-02T04:41:20.689Z,205.70
2023-02-02T04:42:20.674Z,194.40
2023-02-02T04:43:20.660Z,209.30
2023-02-02T04:44:20.653Z,224.60
2023-02-02T04:45:20.624Z,195.50
2023-02-02T04:46:20.629Z,227.50
2023-02-02T04:47:20.604Z,221.30
2023-02-02T04:48:20.595Z,211.60
2023-02-02T04:49:20.764Z,196.90
2023-02-02T04:50:20.563Z,230.00
2023-02-02T04:51:20.557Z,203.20
2023-02-02T04:52:20.543Z,194.30
2023-02-02T04:53:20.524Z,288.30
2023-02-02T04:54:20.532Z,248.80
2023-02-02T04:55:20.507Z,257.00
2023-02-02T04:56:20.508Z,268.60
2023-02-02T04:57:20.471Z,190.50
2023-02-02T04:58:20.467Z,195.10
2023-02-02T04:59:20.467Z,188.00
2023-02-02T05:00:20.442Z,276.10
2023-02-02T05:01:20.470Z,178.60
2023-02-02T05:02:20.415Z,509.40
2023-02-02T05:03:20.405Z,214.60
2023-02-02T05:04:20.437Z,236.50
2023-02-02T05:05:20.381Z,220.10
2023-02-02T05:06:20.373Z,202.40
2023-02-02T05:07:20.353Z,181.80
2023-02-02T05:08:20.339Z,207.50
2023-02-02T05:09:20.331Z,222.90
2023-02-02T05:10:20.322Z,374.80
2023-02-02T05:11:20.302Z,219.10
2023-02-02T05:12:20.289Z,214.50
2023-02-02T05:13:20.274Z,227.40
2023-02-02T05:14:20.281Z,207.90
2023-02-02T05:15:20.240Z,285.30
2023-02-02T05:16:20.289Z,275.90
2023-02-02T05:17:20.234Z,339.30
2023-02-02T05:18:20.214Z,221.00
2023-02-02T05:19:20.198Z,230.40
2023-02-02T05:20:20.190Z,215.80
2023-02-02T05:21:20.190Z,317.70
2023-02-02T05:22:20.161Z,227.90
2023-02-02T05:23:20.136Z,223.40
2023-02-02T05:24:20.144Z,224.00
2023-02-02T05:25:20.125Z,221.20
2023-02-02T05:26:20.155Z,225.00
2023-02-02T05:27:20.095Z,226.00
2023-02-02T05:28:20.077Z,208.40
2023-02-02T05:29:20.074Z,212.30
2023-02-02T05:30:20.046Z,211.00
2023-02-02T05:31:20.158Z,227.90
2023-02-02T05:32:20.042Z,206.50
2023-02-02T05:33:20.015Z,221.10
2023-02-02T05:34:20.014Z,216.50
2023-02-02T05:35:19.992Z,198.30
2023-02-02T05:36:19.985Z,193.90
2023-02-02T05:37:19.955Z,207.80
2023-02-02T05:38:19.944Z,191.50
2023-02-02T05:39:19.955Z,211.90
2023-02-02T05:40:19.924Z,195.20
2023-02-02T05:41:19.902Z,178.10
2023-02-02T05:42:19.896Z,162.90
2023-02-02T05:43:21.584Z,180.00
2023-02-02T05:44:19.898Z,162.50
2023-02-02T05:45:19.853Z,167.40
2023-02-02T05:46:19.912Z,184.90
2023-02-02T05:47:19.832Z,178.50
2023-02-02T05:48:19.830Z,193.00
2023-02-02T05:49:19.844Z,182.40
2023-02-02T05:50:19.837Z,337.30
2023-02-02T05:51:19.774Z,218.50
2023-02-02T05:52:19.770Z,179.70
2023-02-02T05:53:19.761Z,192.40
2023-02-02T05:54:19.788Z,159.80
2023-02-02T05:55:19.720Z,196.20
2023-02-02T05:56:19.725Z,186.70
2023-02-02T05:57:19.701Z,195.20
2023-02-02T05:58:19.709Z,206.70
2023-02-02T05:59:19.679Z,226.00
2023-02-02T06:00:19.668Z,219.40
2023-02-02T06:01:19.651Z,226.10
2023-02-02T06:02:19.652Z,234.30
2023-02-02T06:03:19.728Z,221.30
2023-02-02T06:04:19.628Z,219.50
2023-02-02T06:05:19.598Z,209.00
2023-02-02T06:06:19.587Z,225.30
2023-02-02T06:07:19.581Z,211.60
2023-02-02T06:08:19.569Z,218.60
2023-02-02T06:09:19.652Z,219.20
2023-02-02T06:10:19.555Z,229.00
2023-02-02T06:11:19.517Z,212.80
2023-02-02T06:12:19.520Z,198.00
2023-02-02T06:13:19.496Z,201.10
2023-02-02T06:14:19.504Z,211.20
2023-02-02T06:15:19.475Z,210.70
2023-02-02T06:16:19.465Z,247.90
2023-02-02T06:17:19.446Z,211.80
2023-02-02T06:18:19.425Z,201.70
2023-02-02T06:19:19.451Z,217.10
2023-02-02T06:20:22.216Z,210.10
2023-02-02T06:21:19.395Z,222.30
2023-02-02T06:22:19.383Z,210.00
2023-02-02T06:23:19.375Z,202.60
2023-02-02T06:24:19.387Z,226.10
2023-02-02T06:25:19.379Z,211.30
2023-02-02T06:26:19.409Z,175.20
2023-02-02T06:27:19.326Z,196.30
2023-02-02T06:28:19.303Z,168.50
2023-02-02T06:29:19.317Z,229.90
2023-02-02T06:30:19.292Z,272.50
2023-02-02T06:31:19.583Z,194.30
2023-02-02T06:32:19.256Z,171.20
2023-02-02T06:33:19.242Z,173.70
2023-02-02T06:34:19.241Z,167.80
2023-02-02T06:35:19.241Z,151.80
2023-02-02T06:36:19.233Z,154.30
2023-02-02T06:37:19.194Z,149.90
2023-02-02T06:38:19.185Z,143.70
2023-02-02T06:39:19.160Z,136.60
2023-02-02T06:40:19.164Z,123.00
2023-02-02T06:41:19.144Z,128.80
2023-02-02T06:42:21.561Z,133.90
2023-02-02T06:43:19.123Z,131.50
2023-02-02T06:44:19.106Z,142.90
2023-02-02T06:45:19.100Z,139.20
2023-02-02T06:46:19.136Z,138.50
2023-02-02T06:47:19.069Z,141.30
2023-02-02T06:48:19.045Z,128.30
2023-02-02T06:49:19.045Z,115.40
2023-02-02T06:50:19.040Z,131.20
2023-02-02T06:51:19.019Z,131.90
2023-02-02T06:52:19.001Z,175.80
2023-02-02T06:53:18.988Z,173.70
2023-02-02T06:54:18.983Z,155.60
2023-02-02T06:55:18.976Z,167.10
2023-02-02T06:56:18.944Z,151.60
2023-02-02T06:57:18.940Z,189.60
2023-02-02T06:58:18.922Z,164.60
2023-02-02T06:59:18.907Z,179.20
2023-02-02T07:00:20.450Z,182.70
2023-02-02T07:01:18.921Z,192.50
2023-02-02T07:02:18.968Z,195.80
2023-02-02T07:03:18.865Z,183.80
2023-02-02T07:04:18.837Z,222.90
2023-02-02T07:05:18.846Z,198.70
2023-02-02T07:06:18.828Z,193.70
2023-02-02T07:07:18.828Z,188.80
2023-02-02T07:08:18.785Z,227.20
2023-02-02T07:09:18.794Z,218.10
2023-02-02T07:11:14.206Z,209.10
2023-02-02T07:11:19.753Z,214.40
2023-02-02T07:12:18.734Z,228.50
2023-02-02T07:13:18.737Z,215.40
2023-02-02T07:14:18.710Z,226.40
2023-02-02T07:15:18.715Z,193.80
2023-02-02T07:16:18.712Z,217.40
2023-02-02T07:17:18.685Z,242.00
2023-02-02T07:18:18.657Z,215.30
2023-02-02T07:19:18.653Z,203.90
2023-02-02T07:20:18.643Z,216.50
2023-02-02T07:21:18.640Z,212.70
2023-02-02T07:22:18.603Z,221.40
2023-02-02T07:23:18.596Z,242.80
2023-02-02T07:24:18.588Z,203.50
2023-02-02T07:25:18.582Z,159.30
2023-02-02T07:26:18.562Z,176.80
2023-02-02T07:27:18.554Z,168.80
2023-02-02T07:28:18.571Z,212.10
2023-02-02T07:29:18.521Z,197.20
2023-02-02T07:30:18.528Z,251.20
2023-02-02T07:31:18.576Z,212.10
2023-02-02T07:32:18.483Z,240.90
2023-02-02T07:33:18.470Z,242.90
2023-02-02T07:34:18.450Z,189.30
2023-02-02T07:35:18.451Z,160.10
2023-02-02T07:36:18.426Z,233.30
2023-02-02T07:37:18.428Z,236.30
2023-02-02T07:38:18.400Z,263.40
2023-02-02T07:39:18.429Z,244.00
2023-02-02T07:40:18.433Z,308.70
2023-02-02T07:41:18.368Z,253.10
2023-02-02T07:42:18.349Z,332.00
2023-02-02T07:43:18.340Z,210.00
2023-02-02T07:44:18.319Z,241.60
2023-02-02T07:45:26.673Z,231.00
2023-02-02T07:46:19.339Z,227.40
2023-02-02T07:47:18.289Z,200.50
2023-02-02T07:48:18.272Z,221.70
2023-02-02T07:49:18.270Z,226.50
2023-02-02T07:50:18.257Z,240.00
2023-02-02T07:51:18.272Z,248.80
2023-02-02T07:52:18.222Z,248.70
2023-02-02T07:53:18.207Z,226.30
2023-02-02T07:54:18.199Z,209.90
2023-02-02T07:55:18.201Z,305.80
2023-02-02T07:56:18.168Z,206.30
2023-02-02T07:57:18.155Z,265.40
2023-02-02T07:58:18.146Z,328.10
2023-02-02T07:59:18.125Z,218.10
2023-02-02T08:00:18.136Z,219.10
2023-02-02T08:01:18.125Z,203.10
2023-02-02T08:02:18.096Z,234.60
2023-02-02T08:03:18.162Z,212.20
2023-02-02T08:04:18.061Z,205.70
2023-02-02T08:05:18.067Z,217.00
2023-02-02T08:06:18.041Z,225.30
2023-02-02T08:07:18.036Z,188.70
2023-02-02T08:08:18.003Z,205.20
2023-02-02T08:09:18.002Z,220.30
2023-02-02T08:10:17.995Z,212.30
2023-02-02T08:11:17.979Z,214.30
2023-02-02T08:12:17.953Z,157.60
2023-02-02T08:13:17.947Z,157.20
2023-02-02T08:14:17.935Z,183.00
2023-02-02T08:15:17.932Z,141.50
2023-02-02T08:16:17.942Z,177.70
2023-02-02T08:17:17.893Z,160.20
2023-02-02T08:18:17.871Z,172.60
2023-02-02T08:19:17.861Z,162.00
2023-02-02T08:20:17.879Z,132.20
2023-02-02T08:21:17.860Z,126.00
2023-02-02T08:22:20.180Z,173.90
2023-02-02T08:23:17.801Z,137.30
2023-02-02T08:24:17.801Z,183.00
2023-02-02T08:25:17.884Z,178.30
2023-02-02T08:26:17.920Z,181.30
2023-02-02T08:27:17.763Z,229.30
2023-02-02T08:28:17.739Z,195.30
2023-02-02T08:29:17.732Z,154.80
2023-02-02T08:30:17.712Z,201.60
2023-02-02T08:31:17.752Z,156.10
2023-02-02T08:32:17.681Z,136.40
2023-02-02T08:33:17.688Z,157.60
2023-02-02T08:34:17.657Z,188.30
2023-02-02T08:35:17.654Z,148.10
2023-02-02T08:36:17.655Z,184.90
2023-02-02T08:37:17.619Z,148.30
2023-02-02T08:38:17.608Z,178.60
2023-02-02T08:39:17.621Z,138.20
2023-02-02T08:40:17.639Z,181.10
2023-02-02T08:41:17.603Z,203.90
2023-02-02T08:42:17.556Z,147.70
2023-02-02T08:43:17.546Z,129.80
2023-02-02T08:44:17.525Z,161.30
2023-02-02T08:46:01.998Z,173.80
2023-02-02T08:46:18.904Z,235.70
2023-02-02T08:47:17.493Z,221.70
2023-02-02T08:48:17.467Z,254.80
2023-02-02T08:49:17.455Z,160.20
2023-02-02T08:50:17.447Z,144.00
2023-02-02T08:51:17.461Z,282.50
2023-02-02T08:52:17.438Z,222.90
2023-02-02T08:53:17.405Z,217.70
2023-02-02T08:54:17.421Z,180.70
2023-02-02T08:55:17.388Z,201.10
2023-02-02T08:56:17.376Z,217.20
2023-02-02T08:57:17.352Z,191.20
2023-02-02T08:58:17.349Z,281.30
2023-02-02T08:59:17.323Z,197.30
2023-02-02T09:00:17.313Z,242.10
2023-02-02T09:01:17.436Z,207.40
2023-02-02T09:02:17.324Z,171.20
2023-02-02T09:03:17.276Z,221.70
2023-02-02T09:04:17.261Z,205.80
2023-02-02T09:05:17.249Z,172.60
2023-02-02T09:06:17.262Z,172.80
2023-02-02T09:07:17.219Z,263.80
2023-02-02T09:08:17.279Z,242.50
2023-02-02T09:09:17.191Z,205.30
2023-02-02T09:10:17.180Z,222.50
2023-02-02T09:11:17.188Z,193.20
2023-02-02T09:12:17.150Z,154.40
2023-02-02T09:13:17.145Z,140.20
2023-02-02T09:14:17.127Z,183.30
2023-02-02T09:15:17.110Z,211.90
2023-02-02T09:16:17.142Z,205.90
2023-02-02T09:17:17.080Z,298.90
2023-02-02T09:18:17.063Z,261.30
2023-02-02T09:19:17.123Z,168.30
2023-02-02T09:20:18.563Z,175.70
2023-02-02T09:21:17.042Z,172.80
2023-02-02T09:22:17.018Z,248.00
2023-02-02T09:23:17.005Z,199.10
2023-02-02T09:24:16.989Z,211.50
2023-02-02T09:25:16.987Z,172.10
2023-02-02T09:26:17.054Z,169.30
2023-02-02T09:27:16.959Z,246.00
2023-02-02T09:28:16.926Z,177.90
2023-02-02T09:29:16.930Z,164.00
2023-02-02T09:30:16.932Z,125.00
2023-02-02T09:31:17.027Z,104.50
2023-02-02T09:32:16.905Z,141.40
2023-02-02T09:33:16.869Z,133.60
2023-02-02T09:34:16.852Z,140.90
2023-02-02T09:35:16.852Z,170.20
2023-02-02T09:36:16.961Z,113.70
2023-02-02T09:37:16.815Z,198.20
2023-02-02T09:38:16.797Z,160.00
2023-02-02T09:39:16.883Z,195.40
2023-02-02T09:40:16.770Z,233.10
2023-02-02T09:41:16.759Z,181.20
2023-02-02T09:42:16.768Z,202.40
2023-02-02T09:43:16.746Z,182.80
2023-02-02T09:44:16.715Z,161.60
2023-02-02T09:45:16.711Z,149.20
2023-02-02T09:46:16.815Z,145.40
2023-02-02T09:47:16.701Z,208.40
2023-02-02T09:48:16.660Z,150.50
2023-02-02T09:49:16.745Z,125.20
2023-02-02T09:50:16.641Z,161.90
2023-02-02T09:51:16.639Z,152.40
2023-02-02T09:52:16.614Z,114.00
2023-02-02T09:53:16.611Z,105.30
2023-02-02T09:54:16.579Z,159.40
2023-02-02T09:55:16.583Z,121.30
2023-02-02T09:56:16.549Z,161.40
2023-02-02T09:57:16.554Z,152.80
2023-02-02T09:58:16.532Z,88.00
2023-02-02T09:59:20.540Z,130.20
2023-02-02T10:00:17.500Z,159.00
2023-02-02T10:01:16.595Z,156.20
2023-02-02T10:02:16.478Z,156.40
2023-02-02T10:03:16.470Z,172.40
2023-02-02T10:04:16.467Z,143.30
2023-02-02T10:05:16.449Z,97.50
2023-02-02T10:06:16.418Z,171.00
2023-02-02T10:07:16.419Z,145.90
2023-02-02T10:08:23.063Z,156.20
2023-02-02T10:09:17.401Z,162.40
2023-02-02T10:10:17.740Z,178.70
2023-02-02T10:11:16.363Z,114.40
2023-02-02T10:12:16.371Z,183.90
2023-02-02T10:13:16.337Z,172.30
2023-02-02T10:14:16.306Z,196.20
2023-02-02T10:15:16.306Z,316.10
2023-02-02T10:16:16.308Z,368.60
2023-02-02T10:17:16.286Z,384.50
2023-02-02T10:18:16.340Z,484.00
2023-02-02T10:19:16.247Z,612.90
2023-02-02T10:20:16.226Z,598.30
2023-02-02T10:21:16.230Z,475.90
2023-02-02T10:22:16.224Z,458.10
2023-02-02T10:23:16.195Z,461.40
2023-02-02T10:24:16.176Z,441.20
2023-02-02T10:25:16.181Z,502.20
2023-02-02T10:26:16.154Z,434.10
2023-02-02T10:27:16.157Z,314.50
2023-02-02T10:28:16.125Z,248.40
2023-02-02T10:29:16.150Z,234.50
2023-02-02T10:30:16.097Z,251.90
2023-02-02T10:31:16.330Z,197.70
2023-02-02T10:32:16.115Z,299.60
2023-02-02T10:33:16.061Z,232.10
2023-02-02T10:34:16.055Z,291.80
2023-02-02T10:35:16.053Z,225.10
2023-02-02T10:36:16.035Z,445.20
2023-02-02T10:37:16.034Z,458.70
2023-02-02T10:38:16.013Z,478.20
2023-02-02T10:39:15.991Z,443.60
2023-02-02T10:40:15.978Z,361.40
2023-02-02T10:41:15.964Z,623.90
2023-02-02T10:42:15.972Z,608.70
2023-02-02T10:43:15.930Z,505.00
2023-02-02T10:44:15.929Z,361.00
2023-02-02T10:45:15.911Z,579.70
2023-02-02T10:46:15.919Z,642.20
2023-02-02T10:47:15.899Z,739.10
2023-02-02T10:48:15.874Z,567.30
2023-02-02T10:49:15.849Z,509.40
2023-02-02T10:50:15.904Z,582.10
2023-02-02T10:51:15.822Z,612.40
2023-02-02T10:52:15.858Z,721.70
2023-02-02T10:53:15.804Z,665.70
2023-02-02T10:54:15.804Z,572.50
2023-02-02T10:55:15.770Z,691.10
2023-02-02T10:56:15.770Z,570.10
2023-02-02T10:57:15.771Z,527.40
2023-02-02T10:58:15.741Z,504.20
2023-02-02T10:59:15.720Z,590.20
2023-02-02T11:00:15.725Z,536.60
2023-02-02T11:01:15.736Z,558.60
2023-02-02T11:02:20.961Z,603.00
2023-02-02T11:03:16.679Z,735.80
2023-02-02T11:04:15.802Z,628.70
2023-02-02T11:05:15.694Z,568.90
2023-02-02T11:06:15.633Z,593.20
2023-02-02T11:07:15.618Z,711.50
2023-02-02T11:08:15.630Z,627.40
2023-02-02T11:09:15.605Z,722.20
2023-02-02T11:10:15.589Z,490.50
2023-02-02T11:11:15.575Z,451.50
2023-02-02T11:12:15.568Z,456.60
2023-02-02T11:13:15.609Z,508.70
2023-02-02T11:14:15.548Z,487.90
2023-02-02T11:15:15.519Z,473.10
2023-02-02T11:16:15.580Z,321.30
2023-02-02T11:17:15.478Z,363.70
2023-02-02T11:18:15.499Z,372.50
2023-02-02T11:19:15.457Z,552.40
2023-02-02T11:20:15.503Z,435.70
2023-02-02T11:21:15.442Z,451.70
2023-02-02T11:22:15.428Z,415.60
2023-02-02T11:23:15.411Z,296.60
2023-02-02T11:24:15.398Z,507.80
2023-02-02T11:25:15.381Z,507.30
2023-02-02T11:26:15.371Z,335.70
2023-02-02T11:27:15.364Z,263.00
2023-02-02T11:28:15.344Z,346.50
2023-02-02T11:29:15.322Z,424.30
2023-02-02T11:30:15.320Z,589.20
2023-02-02T11:31:15.371Z,658.40
2023-02-02T11:32:15.284Z,525.50
2023-02-02T11:33:15.327Z,472.60
2023-02-02T11:34:15.264Z,719.70
2023-02-02T11:35:15.243Z,849.10
2023-02-02T11:36:15.235Z,733.90
2023-02-02T11:37:15.223Z,831.20
2023-02-02T11:38:15.204Z,896.30
2023-02-02T11:39:15.216Z,904.40
2023-02-02T11:40:15.183Z,917.80
2023-02-02T11:41:15.162Z,934.80
2023-02-02T11:42:15.152Z,923.60
2023-02-02T11:43:15.160Z,981.10
2023-02-02T11:44:15.140Z,1001.00
2023-02-02T11:45:15.114Z,976.00
2023-02-02T11:46:15.122Z,946.10
2023-02-02T11:47:15.093Z,1002.90
2023-02-02T11:48:15.069Z,893.90
2023-02-02T11:49:15.067Z,883.30
2023-02-02T11:50:15.095Z,1095.40
2023-02-02T11:51:15.108Z,1011.90
2023-02-02T11:52:15.024Z,1107.00
2023-02-02T11:53:15.010Z,1086.60
2023-02-02T11:54:15.009Z,1025.20
2023-02-02T11:55:14.992Z,1153.70
2023-02-02T11:56:14.976Z,1214.00
2023-02-02T11:57:14.948Z,1509.00
2023-02-02T11:58:14.944Z,1689.30
2023-02-02T11:59:14.931Z,1845.30
2023-02-02T12:00:14.908Z,1894.20
2023-02-02T12:01:14.900Z,1894.70
2023-02-02T12:02:14.935Z,1847.00
2023-02-02T12:03:14.868Z,1896.70
2023-02-02T12:04:14.919Z,1899.30
2023-02-02T12:05:14.861Z,1956.20
2023-02-02T12:06:14.836Z,1885.00
2023-02-02T12:07:14.836Z,1921.20
2023-02-02T12:08:14.819Z,1999.90
2023-02-02T12:09:14.798Z,1999.90
2023-02-02T12:10:14.788Z,1854.20
2023-02-02T12:11:14.770Z,1997.20
2023-02-02T12:12:14.766Z,1961.20
2023-02-02T12:13:14.746Z,1999.90
2023-02-02T12:14:14.737Z,1999.90
2023-02-02T12:15:14.725Z,1999.90
2023-02-02T12:16:14.736Z,1999.90
2023-02-02T12:17:14.695Z,1999.90
2023-02-02T12:18:14.688Z,1999.90
2023-02-02T12:19:16.347Z,1999.90
2023-02-02T12:20:17.359Z,1999.90
2023-02-02T12:21:14.695Z,1999.90
2023-02-02T12:22:14.629Z,1999.90
2023-02-02T12:23:14.604Z,1999.90
2023-02-02T12:24:14.626Z,1999.90
2023-02-02T12:25:14.588Z,1999.90
2023-02-02T12:26:14.587Z,1999.90
2023-02-02T12:27:14.589Z,1999.90
2023-02-02T12:28:14.554Z,1999.90
2023-02-02T12:29:14.573Z,1999.90
2023-02-02T12:30:14.541Z,1999.90
2023-02-02T12:31:15.074Z,1999.90
2023-02-02T12:32:14.493Z,1999.90
2023-02-02T12:33:14.475Z,1999.90